Ottawa Lake, MI (49267)

2:57 PM EDT on July 30, 2016 (GMT -0400)
Acres & Marshall Area | | Change Station

Elev 651 ft 41.72 °N, 83.68 °W | Updated 4 seconds ago

Scattered Clouds
Scattered Clouds
74.7 °F
Feels Like 75 °F
N
0.0
Wind Variable Wind from East
Gusts 6.0 mph

Today
High -- | Low -- °F
--% Chance of Precip.
Yesterday
High -- | Low -- °F
Precip. -- in
Pressure 29.97 in
Visibility 10.0 miles
Clouds Scattered Clouds 5500 ft
Scattered Clouds 8000 ft
Scattered Clouds 11000 ft
Heat Index 75 °F
Dew Point 68 °F
Humidity 81%
Rainfall 0.00 in
Snow Depth Not available.
6:27 AM 8:54 PM
Waning Crescent, 11% visible
METAR KDUH 301834Z AUTO 09003KT 10SM SCT055 SCT080 SCT110 24/20 A2997 RMK AO2 T02370201
Pressure 29.97 in
Visibility 10.0 miles
Clouds Scattered Clouds 5500 ft
Scattered Clouds 8000 ft
Scattered Clouds 11000 ft
Heat Index 75 °F
Dew Point 68 °F
Humidity 81%
Rainfall 0.00 in
Snow Depth Not available.
6:27 AM 8:54 PM
Waning Crescent, 11% visible
METAR KDUH 301834Z AUTO 09003KT 10SM SCT055 SCT080 SCT110 24/20 A2997 RMK AO2 T02370201

10-Day Weather Forecast

Almanac

Astronomy

Jul. 30, 2016 Rise Set
Actual Time
Civil Twilight
Nautical Twilight
Astronomical Twilight
Moon
Length of Visible Light
Length of Day
Tomorrow will be .
, % of the Moon is Illuminated

Today's Extremes

State Highs State Lows

Community

WunderPhotos

Upload Photos

1,928,612 photos uploaded!

WunderBlog® & News

Nearby

Air Quality

  Air Quality AQ Index Pollutant
Not available.

Snow Depth

Station Depth Elevation

Earthquake Activity

City Distance Mag. Time & Date
Minimum magnitude displayed is 2.5.

Coastal Water Temperatures

Place Temperature

Stations

Nearby Weather Stations

Station Location Temp. Windchill Dew Point Humidity Wind Precip. Elev Updated Type
                   

Watches & Warnings

There are currently no watches in effect.